This is the latest recevied weather packets stored in our database for station/object N7AWM. If no packets are shown the sender has not sent any weather packets the latest 10 day(s).
| Time | Temp. | Humidity | Pressure | Rain* | Wind** | Luminosity | Snow |
|---|---|---|---|---|---|---|---|
| 1777727144 | 15° C | 54% | 1011.1 hPa | 0 mm | - | - | - |
| 1777726304 | 15.56° C | 52% | 1011 hPa | 0 mm | - | - | - |
| 1777725464 | 16.11° C | 49% | 1011 hPa | 0 mm | - | - | - |
| 1777724625 | 15.56° C | 51% | 1010.9 hPa | 0 mm | - | - | - |
| 1777723785 | 15° C | 53% | 1011 hPa | 0 mm | - | - | - |
| 1777722945 | 14.44° C | 57% | 1010.9 hPa | 0 mm | - | - | - |
| 1777722105 | 14.44° C | 57% | 1010.9 hPa | 0 mm | - | - | - |
| 1777721265 | 14.44° C | 58% | 1011 hPa | 0 mm | - | - | - |
| 1777720425 | 14.44° C | 57% | 1011.1 hPa | 0 mm | - | - | - |
| 1777719585 | 14.44° C | 56% | 1011.2 hPa | 0 mm | - | - | - |
| 1777718745 | 15° C | 55% | 1011.1 hPa | 0 mm | - | - | - |
| 1777717905 | 16.11° C | 50% | 1011.1 hPa | 0 mm | - | - | - |
| 1777717065 | 17.22° C | 44% | 1010.9 hPa | 0 mm | - | - | - |
| 1777716225 | 17.22° C | 45% | 1011 hPa | 0 mm | - | - | - |
| 1777715385 | 17.22° C | 45% | 1011.1 hPa | 0 mm | - | - | - |
| 1777714545 | 17.22° C | 46% | 1011.1 hPa | 0 mm | - | - | - |
| 1777713705 | 17.78° C | 45% | 1011.3 hPa | 0 mm | - | - | - |
| 1777712865 | 17.22° C | 44% | 1011.4 hPa | 0 mm | - | - | - |
| 1777712025 | 17.22° C | 45% | 1011.5 hPa | 0 mm | - | - | - |
| 1777711186 | 16.67° C | 46% | 1011.5 hPa | 0 mm | - | - | - |
| 1777710346 | 17.22° C | 45% | 1011.7 hPa | 0 mm | - | - | - |
| 1777709506 | 17.22° C | 46% | 1011.7 hPa | 0 mm | - | - | - |
| 1777708666 | 17.22° C | 45% | 1011.9 hPa | 0 mm | - | - | - |
| 1777707826 | 17.78° C | 44% | 1011.8 hPa | 0 mm | - | - | - |
| 1777706986 | 17.78° C | 44% | 1011.6 hPa | 0 mm | - | - | - |
* Rain latest hour (hover to see other rain measurements)
** Current wind speed in m/s (hover to see current wind gust speed)